Kirtley, Texas
Current Conditions -  °F | °C
As of 4:15 PM on Sunday 21 Dec 2014 (Local Time) from KGYB Reporting Station
Overcast Overcast  
Wind Chill: 55°   Ceiling: 1500
Heat Index: 55°   Visibility: 10mi
Dew Point: 49°   Wind: 5mph
Humidity: 81%   Direction: 170°S
Pressure: 29.96"   Gusts: NA
Location:  30.0743°N, 97.1141°W
Report Text: KGYB 212215Z AUTO 17004KT 10SM BKN015 OVC020 13/10 A2996 RMK AO2 T01260095
Loading
Personal Weather Stations






























Interactive Weather Map New forecast layout! Learn more

10-Day Weather Forecast

Advertisements
Track Severe Weather on mobile